Istanbul/Sabiha Gökçen International Airport

Airport
ICAO code: 
LTFJ
IATA Code: 
SAW
Summary
ICAO Region: 
EUR
Territory: 
Location: 
Sanayi, Istanbul
Serving: 
Istanbul
Elevation: 
312 ft
Coordinates: 
Aerial View: 
40° 54' 19.332" N, 29° 19' 0.696" E
Metar
Observation
LTFJ 281120Z 20011KT CAVOK 06/M02 Q1020 NOSIG
Station
Istanbul / Sabiha Gokcen
Date/Time
2022-01-28 11:20:00
Wind direction
200°
Wind speed
11 kts
Lowest cloud amount
clouds and visibility OK
Temperature
6°C
Dew point
-2°C
Humidity
56%
QNH
1020 hPa
Weather condition
n/a

Runways

Designator Length Width Surface Rops
6/24 3000 45 CON Yes/Yes
Airport map: 
Aerial View: 

SKYbrary Partners:

Safety knowledge contributed by: